Time;durP1;ratioP1;P1;durP2;ratioP2;P2;SDS_P1;SDS_P2;PMS_P1;PMS_P2;Temp;Humidity;BMP_temperature;BMP_pressure;BME280_temperature;BME280_humidity;BME280_pressure;Samples;Min_cycle;Max_cycle;Signal;HPM_P1;HPM_P2
2021/09/11 00:01:45;;;;;;;10.47;9.47;;;;;;;;;;5033011;28;20937;-57
2021/09/11 00:04:12;;;;;;;10.93;9.83;;;;;;;;;;5033374;28;20555;-57
2021/09/11 00:06:40;;;;;;;10.90;9.83;;;;;;;;;;5033295;28;20795;-57
2021/09/11 00:09:07;;;;;;;10.60;9.50;;;;;;;;;;5033213;28;20515;-57
2021/09/11 00:11:34;;;;;;;11.10;10.00;;;;;;;;;;5033418;28;20491;-57
2021/09/11 00:14:01;;;;;;;10.27;9.37;;;;;;;;;;5032993;28;20485;-57
2021/09/11 00:16:29;;;;;;;12.43;11.07;;;;;;;;;;5033527;28;20452;-57
2021/09/11 00:18:58;;;;;;;11.07;10.07;;;;;;;;;;5033371;28;20538;-57
2021/09/11 00:21:25;;;;;;;11.00;10.07;;;;;;;;;;5033478;28;20503;-57
2021/09/11 00:23:52;;;;;;;11.27;10.20;;;;;;;;;;5034923;28;20433;-57
2021/09/11 00:26:19;;;;;;;11.40;10.40;;;;;;;;;;5037306;28;20882;-57
2021/09/11 00:28:47;;;;;;;13.13;10.77;;;;;;;;;;5036886;28;20480;-57
2021/09/11 00:31:14;;;;;;;13.13;11.00;;;;;;;;;;5037274;28;20441;-56
2021/09/11 00:33:41;;;;;;;12.70;10.90;;;;;;;;;;5037858;28;20487;-57
2021/09/11 00:36:10;;;;;;;12.63;11.03;;;;;;;;;;5036873;28;20445;-57
2021/09/11 00:38:37;;;;;;;12.60;11.40;;;;;;;;;;5036841;28;20469;-58
2021/09/11 00:41:04;;;;;;;12.93;11.00;;;;;;;;;;5037296;28;20492;-57
2021/09/11 00:43:34;;;;;;;12.60;11.37;;;;;;;;;;5036799;28;20436;-57
2021/09/11 00:46:02;;;;;;;15.13;11.87;;;;;;;;;;5036725;28;20444;-57
2021/09/11 00:48:29;;;;;;;13.53;12.33;;;;;;;;;;5036793;28;20552;-57
2021/09/11 00:50:56;;;;;;;13.77;12.47;;;;;;;;;;5036808;28;20453;-57
2021/09/11 00:53:25;;;;;;;13.67;12.37;;;;;;;;;;5036684;28;20526;-57
2021/09/11 00:55:52;;;;;;;14.83;11.73;;;;;;;;;;5036425;28;20449;-57
2021/09/11 00:58:20;;;;;;;14.33;12.17;;;;;;;;;;5036406;28;20534;-57
2021/09/11 01:00:47;;;;;;;14.67;13.17;;;;;;;;;;5037386;28;20514;-57
2021/09/11 01:03:14;;;;;;;15.00;13.40;;;;;;;;;;5042834;28;20441;-59
2021/09/11 01:05:42;;;;;;;14.47;13.13;;;;;;;;;;5036832;28;20449;-57
2021/09/11 01:08:09;;;;;;;16.90;12.93;;;;;;;;;;5036845;28;20461;-58
2021/09/11 01:10:40;;;;;;;14.73;12.70;;;;;;;;;;5036829;28;20441;-57
2021/09/11 01:13:09;;;;;;;15.00;13.50;;;;;;;;;;5036775;28;20514;-56
2021/09/11 01:15:38;;;;;;;15.40;13.80;;;;;;;;;;5036930;28;20453;-58
2021/09/11 01:18:05;;;;;;;13.93;12.73;;;;;;;;;;5036563;28;20559;-58
2021/09/11 01:20:32;;;;;;;14.80;13.27;;;;;;;;;;5036048;28;20863;-57
2021/09/11 01:23:00;;;;;;;13.30;12.13;;;;;;;;;;5036251;28;20510;-58
2021/09/11 01:25:28;;;;;;;12.17;11.07;;;;;;;;;;5036201;28;20527;-58
2021/09/11 01:27:56;;;;;;;12.43;11.30;;;;;;;;;;5036170;28;20456;-58
2021/09/11 01:30:23;;;;;;;11.40;10.30;;;;;;;;;;5036078;28;20449;-58
2021/09/11 01:32:51;;;;;;;11.55;10.50;;;;;;;;;;5035667;28;20936;-58
2021/09/11 01:35:19;;;;;;;10.97;9.97;;;;;;;;;;5035309;28;20479;-58
2021/09/11 01:37:46;;;;;;;10.40;9.50;;;;;;;;;;5037435;28;20988;-58
2021/09/11 01:40:14;;;;;;;10.93;9.93;;;;;;;;;;5037936;28;20860;-57
2021/09/11 01:42:43;;;;;;;11.50;10.50;;;;;;;;;;5036699;28;20483;-57
2021/09/11 01:45:11;;;;;;;11.33;10.33;;;;;;;;;;5035457;28;20449;-57
2021/09/11 01:47:39;;;;;;;11.07;9.97;;;;;;;;;;5035394;28;20473;-57
2021/09/11 01:50:07;;;;;;;11.73;10.53;;;;;;;;;;5036462;28;20449;-56
2021/09/11 01:52:34;;;;;;;10.77;9.77;;;;;;;;;;5035347;28;21003;-57
2021/09/11 01:55:04;;;;;;;11.23;10.20;;;;;;;;;;5035561;28;20484;-57
2021/09/11 01:57:31;;;;;;;11.93;10.70;;;;;;;;;;5035335;28;20484;-58
2021/09/11 02:00:00;;;;;;;13.33;12.03;;;;;;;;;;5035372;28;20453;-57
2021/09/11 02:02:27;;;;;;;10.80;9.87;;;;;;;;;;5035302;28;20507;-57
2021/09/11 02:04:54;;;;;;;11.43;10.20;;;;;;;;;;5035472;28;20449;-57
2021/09/11 02:07:21;;;;;;;10.47;9.50;;;;;;;;;;5035066;28;20515;-57
2021/09/11 02:09:48;;;;;;;11.60;10.50;;;;;;;;;;5035364;28;20499;-57
2021/09/11 02:12:16;;;;;;;14.10;11.53;;;;;;;;;;5034978;28;20945;-57
2021/09/11 02:14:43;;;;;;;14.57;10.97;;;;;;;;;;5035221;28;20558;-57
2021/09/11 02:17:11;;;;;;;12.50;11.30;;;;;;;;;;5034902;28;20976;-59
2021/09/11 02:19:39;;;;;;;13.40;12.20;;;;;;;;;;5034940;28;20989;-57
2021/09/11 02:22:07;;;;;;;13.67;12.37;;;;;;;;;;5035271;28;20499;-57
2021/09/11 02:24:35;;;;;;;14.03;12.60;;;;;;;;;;5034822;28;20891;-57
2021/09/11 02:27:02;;;;;;;15.00;13.43;;;;;;;;;;5035008;28;20449;-58
2021/09/11 02:29:29;;;;;;;16.73;15.03;;;;;;;;;;5035041;28;20866;-57
2021/09/11 02:31:57;;;;;;;15.63;14.07;;;;;;;;;;5034639;28;20496;-57
2021/09/11 02:34:26;;;;;;;15.47;13.87;;;;;;;;;;5034799;28;20485;-57
2021/09/11 02:36:53;;;;;;;17.27;15.10;;;;;;;;;;5034571;28;20448;-58
2021/09/11 02:39:20;;;;;;;15.57;14.17;;;;;;;;;;5034854;28;20444;-57
2021/09/11 02:41:47;;;;;;;14.27;12.83;;;;;;;;;;5034586;28;20925;-57
2021/09/11 02:44:15;;;;;;;15.90;14.37;;;;;;;;;;5034696;28;20437;-57
2021/09/11 02:46:42;;;;;;;16.90;15.13;;;;;;;;;;5033982;28;20863;-57
2021/09/11 02:49:09;;;;;;;15.37;13.80;;;;;;;;;;5034152;28;20472;-56
2021/09/11 02:51:38;;;;;;;14.70;13.30;;;;;;;;;;5034599;28;20453;-57
2021/09/11 02:54:05;;;;;;;16.00;14.03;;;;;;;;;;5034447;28;20481;-57
2021/09/11 02:56:33;;;;;;;15.20;13.80;;;;;;;;;;5034465;28;20452;-57
2021/09/11 02:59:00;;;;;;;16.13;14.43;;;;;;;;;;5033991;28;20530;-57
2021/09/11 03:01:27;;;;;;;14.87;13.37;;;;;;;;;;5034378;28;20505;-57
2021/09/11 03:03:54;;;;;;;16.20;14.60;;;;;;;;;;5033985;28;20995;-57
2021/09/11 03:06:21;;;;;;;14.63;13.23;;;;;;;;;;5034240;28;20449;-57
2021/09/11 03:08:50;;;;;;;15.97;14.47;;;;;;;;;;5033884;28;21050;-57
2021/09/11 03:11:17;;;;;;;17.17;15.37;;;;;;;;;;5033856;28;20491;-57
2021/09/11 03:13:44;;;;;;;18.33;16.53;;;;;;;;;;5033804;28;20495;-57
2021/09/11 03:16:12;;;;;;;17.70;15.97;;;;;;;;;;5034264;28;20445;-57
2021/09/11 03:18:39;;;;;;;17.20;15.40;;;;;;;;;;5033948;28;20877;-57
2021/09/11 03:21:06;;;;;;;18.40;16.60;;;;;;;;;;5033787;28;20441;-56
2021/09/11 03:23:33;;;;;;;17.10;15.37;;;;;;;;;;5033717;28;20441;-57
2021/09/11 03:26:02;;;;;;;19.80;17.83;;;;;;;;;;5033935;28;20448;-57
2021/09/11 03:28:29;;;;;;;19.37;16.87;;;;;;;;;;5034934;28;20469;-57
2021/09/11 03:30:57;;;;;;;18.43;16.53;;;;;;;;;;5033930;28;20449;-58
2021/09/11 03:33:24;;;;;;;19.10;17.20;;;;;;;;;;5033705;28;21002;-57
2021/09/11 03:35:51;;;;;;;22.20;19.90;;;;;;;;;;5033940;28;20476;-57
2021/09/11 03:38:18;;;;;;;19.80;17.70;;;;;;;;;;5033837;28;20523;-57
2021/09/11 03:40:46;;;;;;;19.27;17.40;;;;;;;;;;5033748;28;20468;-57
2021/09/11 03:43:14;;;;;;;18.07;16.27;;;;;;;;;;5033647;28;20490;-57
2021/09/11 03:45:41;;;;;;;22.27;18.17;;;;;;;;;;5033296;28;20445;-57
2021/09/11 03:48:09;;;;;;;21.73;19.43;;;;;;;;;;5033513;28;20465;-58
2021/09/11 03:50:36;;;;;;;20.33;18.07;;;;;;;;;;5033286;28;20987;-57
2021/09/11 03:53:03;;;;;;;22.30;19.63;;;;;;;;;;5033185;28;20449;-57
2021/09/11 03:55:30;;;;;;;24.20;21.10;;;;;;;;;;5033431;28;20542;-58
2021/09/11 03:57:58;;;;;;;25.80;22.57;;;;;;;;;;5057146;22;20546;-64
2021/09/11 04:00:26;;;;;;;26.50;22.23;;;;;;;;;;5033410;28;20448;-64
2021/09/11 04:02:53;;;;;;;23.40;20.47;;;;;;;;;;5033442;28;20508;-64
2021/09/11 04:08:35;;;;;;;23.42;20.77;;;;;;;;;;5152985;27;20560;-64
2021/09/11 04:11:03;;;;;;;23.33;20.87;;;;;;;;;;5131798;27;20247;-62
2021/09/11 04:13:30;;;;;;;29.63;24.10;;;;;;;;;;5131763;27;20445;-65
2021/09/11 04:15:57;;;;;;;27.77;23.13;;;;;;;;;;5131758;27;20920;-63
2021/09/11 04:18:25;;;;;;;24.73;21.90;;;;;;;;;;5131711;27;20513;-64
2021/09/11 04:20:52;;;;;;;26.00;22.95;;;;;;;;;;5131376;27;20924;-63
2021/09/11 04:23:19;;;;;;;32.47;23.50;;;;;;;;;;5131312;27;20199;-64
2021/09/11 04:25:48;;;;;;;25.80;20.50;;;;;;;;;;5131656;27;20501;-63
2021/09/11 04:28:15;;;;;;;27.30;23.40;;;;;;;;;;5131348;27;20488;-64
2021/09/11 04:30:43;;;;;;;30.83;22.23;;;;;;;;;;5131180;27;20449;-64
2021/09/11 04:33:10;;;;;;;34.80;25.50;;;;;;;;;;5131483;27;20441;-64
2021/09/11 04:35:37;;;;;;;35.73;25.90;;;;;;;;;;5131335;27;20497;-63
2021/09/11 04:38:04;;;;;;;33.43;24.23;;;;;;;;;;5131061;27;21032;-64
2021/09/11 04:40:32;;;;;;;33.95;24.02;;;;;;;;;;5131259;27;20452;-63
2021/09/11 04:43:00;;;;;;;31.75;24.63;;;;;;;;;;5131290;27;20199;-64
2021/09/11 04:45:28;;;;;;;31.23;23.40;;;;;;;;;;5131160;27;20203;-65
2021/09/11 04:47:55;;;;;;;33.43;24.17;;;;;;;;;;5131096;27;20822;-64
2021/09/11 04:50:22;;;;;;;31.40;25.25;;;;;;;;;;5131307;27;20487;-63
2021/09/11 04:52:50;;;;;;;35.30;25.43;;;;;;;;;;5131167;27;20210;-64
2021/09/11 04:55:17;;;;;;;31.90;23.60;;;;;;;;;;5131012;27;20494;-64
2021/09/11 04:57:44;;;;;;;30.77;24.00;;;;;;;;;;5131233;27;20518;-63
2021/09/11 05:00:14;;;;;;;34.53;28.30;;;;;;;;;;5131032;27;20448;-64
2021/09/11 05:02:41;;;;;;;34.80;24.20;;;;;;;;;;5131094;27;20440;-63
2021/09/11 05:05:09;;;;;;;34.03;23.73;;;;;;;;;;5131145;27;20445;-65
2021/09/11 05:07:36;;;;;;;29.93;23.40;;;;;;;;;;5131989;27;21068;-63
2021/09/11 05:10:03;;;;;;;29.40;22.60;;;;;;;;;;5131938;27;20867;-62
2021/09/11 05:12:31;;;;;;;30.75;21.77;;;;;;;;;;5130522;27;20437;-63
2021/09/11 05:14:58;;;;;;;28.10;23.03;;;;;;;;;;5131129;27;20330;-64
2021/09/11 05:17:27;;;;;;;30.55;23.77;;;;;;;;;;5130449;27;20854;-64
2021/09/11 05:19:54;;;;;;;26.90;23.00;;;;;;;;;;5118883;27;20203;-64
2021/09/11 05:22:21;;;;;;;29.73;24.07;;;;;;;;;;5120635;28;20445;-64
2021/09/11 05:24:48;;;;;;;26.40;21.77;;;;;;;;;;5120076;28;20498;-63
2021/09/11 05:27:16;;;;;;;26.63;22.40;;;;;;;;;;5118480;28;20882;-64
2021/09/11 05:29:43;;;;;;;27.42;21.30;;;;;;;;;;5117815;28;20483;-64
2021/09/11 05:32:10;;;;;;;24.93;20.87;;;;;;;;;;5117904;28;20207;-62
2021/09/11 05:34:39;;;;;;;25.50;21.70;;;;;;;;;;5117313;28;20494;-63
2021/09/11 05:37:06;;;;;;;25.63;20.37;;;;;;;;;;5117289;28;20494;-63
2021/09/11 05:39:33;;;;;;;22.60;19.30;;;;;;;;;;5116467;28;20513;-63
2021/09/11 05:42:00;;;;;;;18.93;16.90;;;;;;;;;;5116371;28;20506;-61
2021/09/11 05:44:28;;;;;;;20.97;18.80;;;;;;;;;;5116372;28;20437;-63
2021/09/11 05:46:55;;;;;;;20.30;17.13;;;;;;;;;;5116363;28;20477;-63
2021/09/11 05:49:22;;;;;;;18.60;16.70;;;;;;;;;;5116512;28;20466;-64
2021/09/11 05:51:51;;;;;;;19.80;17.73;;;;;;;;;;5116597;28;20445;-63
2021/09/11 05:54:18;;;;;;;19.67;16.95;;;;;;;;;;5116813;28;20442;-63
2021/09/11 05:56:45;;;;;;;17.63;15.80;;;;;;;;;;5116826;28;20230;-64
2021/09/11 05:59:13;;;;;;;20.03;14.87;;;;;;;;;;5116621;28;20458;-64
2021/09/11 06:01:40;;;;;;;18.30;16.40;;;;;;;;;;5116144;28;20445;-63
2021/09/11 06:04:07;;;;;;;17.13;15.33;;;;;;;;;;5116375;28;20537;-64
2021/09/11 06:06:36;;;;;;;18.10;16.20;;;;;;;;;;5116085;28;20471;-64
2021/09/11 06:09:05;;;;;;;17.77;16.07;;;;;;;;;;5116294;28;21040;-63
2021/09/11 06:11:32;;;;;;;15.52;14.00;;;;;;;;;;5117129;28;20438;-64
2021/09/11 06:13:59;;;;;;;14.53;13.20;;;;;;;;;;5116089;28;20203;-64
2021/09/11 06:16:26;;;;;;;15.93;14.37;;;;;;;;;;5116242;28;20509;-63
2021/09/11 06:18:53;;;;;;;15.60;14.02;;;;;;;;;;5115752;28;20465;-63
2021/09/11 06:21:21;;;;;;;15.43;13.90;;;;;;;;;;5116387;28;20245;-61
2021/09/11 06:23:48;;;;;;;14.80;13.30;;;;;;;;;;5116252;28;20494;-64
2021/09/11 06:26:17;;;;;;;13.87;12.47;;;;;;;;;;5115927;28;20494;-64
2021/09/11 06:28:44;;;;;;;17.45;15.65;;;;;;;;;;5116146;28;20526;-64
2021/09/11 06:31:11;;;;;;;15.95;14.40;;;;;;;;;;5115610;27;20242;-64
2021/09/11 06:33:38;;;;;;;15.97;13.60;;;;;;;;;;5115603;28;20200;-63
2021/09/11 06:36:10;;;;;;;14.07;12.67;;;;;;;;;;5115669;28;20929;-64
2021/09/11 06:38:37;;;;;;;13.43;12.17;;;;;;;;;;5115573;28;20497;-64
2021/09/11 06:41:04;;;;;;;15.67;13.77;;;;;;;;;;5115853;28;20474;-63
2021/09/11 06:43:33;;;;;;;19.03;13.30;;;;;;;;;;5115692;28;20491;-64
2021/09/11 06:46:00;;;;;;;14.18;12.88;;;;;;;;;;5115360;28;20929;-64
2021/09/11 06:48:27;;;;;;;18.00;14.77;;;;;;;;;;5115471;28;20278;-64
2021/09/11 06:50:55;;;;;;;13.80;12.07;;;;;;;;;;5115578;28;20518;-64
2021/09/11 06:53:22;;;;;;;15.70;13.70;;;;;;;;;;5115426;28;20232;-65
2021/09/11 06:55:50;;;;;;;15.10;13.63;;;;;;;;;;5115895;28;20918;-64
2021/09/11 06:58:17;;;;;;;16.03;14.33;;;;;;;;;;5118062;28;20451;-65
2021/09/11 07:00:46;;;;;;;16.80;14.93;;;;;;;;;;5118703;28;20522;-62
2021/09/11 07:03:13;;;;;;;18.37;16.50;;;;;;;;;;5117242;28;20442;-64
2021/09/11 07:05:42;;;;;;;17.30;15.60;;;;;;;;;;5117883;28;20445;-64
2021/09/11 07:08:09;;;;;;;17.58;15.77;;;;;;;;;;5123281;28;20517;-62
2021/09/11 07:10:36;;;;;;;17.17;15.37;;;;;;;;;;5115627;28;20200;-64
2021/09/11 07:13:03;;;;;;;19.73;17.02;;;;;;;;;;5115180;28;20442;-64
2021/09/11 07:15:31;;;;;;;18.40;16.60;;;;;;;;;;5114937;28;20204;-64
2021/09/11 07:17:59;;;;;;;20.48;18.10;;;;;;;;;;5114401;28;20461;-64
2021/09/11 07:20:27;;;;;;;20.80;18.45;;;;;;;;;;5114488;28;20578;-64
2021/09/11 07:22:54;;;;;;;20.07;18.03;;;;;;;;;;5114522;28;20206;-62
2021/09/11 07:25:21;;;;;;;19.77;17.63;;;;;;;;;;5114667;28;20493;-65
2021/09/11 07:27:48;;;;;;;16.83;14.77;;;;;;;;;;5114155;28;20482;-62
2021/09/11 07:30:16;;;;;;;18.10;16.20;;;;;;;;;;5114561;28;20506;-63
2021/09/11 07:32:43;;;;;;;16.53;14.83;;;;;;;;;;5114860;28;20932;-64
2021/09/11 07:35:12;;;;;;;19.40;17.33;;;;;;;;;;5114019;28;20773;-64
2021/09/11 07:37:39;;;;;;;17.70;15.53;;;;;;;;;;5113593;28;20510;-63
2021/09/11 07:40:07;;;;;;;17.47;15.60;;;;;;;;;;5114011;28;20447;-64
2021/09/11 07:42:34;;;;;;;18.33;16.13;;;;;;;;;;5113984;28;20494;-64
2021/09/11 07:45:02;;;;;;;16.50;14.70;;;;;;;;;;5113899;28;20204;-63
2021/09/11 07:47:29;;;;;;;18.20;14.73;;;;;;;;;;5113712;28;20444;-63
2021/09/11 07:49:56;;;;;;;19.23;17.13;;;;;;;;;;5113898;27;20440;-63
2021/09/11 07:52:25;;;;;;;17.53;15.60;;;;;;;;;;5113519;28;20952;-64
2021/09/11 07:54:52;;;;;;;17.27;14.50;;;;;;;;;;5113849;28;20440;-63
2021/09/11 07:57:19;;;;;;;20.10;14.70;;;;;;;;;;5113303;28;20930;-64
2021/09/11 07:59:46;;;;;;;17.23;14.70;;;;;;;;;;5113463;28;20493;-63
2021/09/11 08:02:14;;;;;;;15.77;14.07;;;;;;;;;;5114324;28;20452;-64
2021/09/11 08:04:41;;;;;;;15.90;13.67;;;;;;;;;;5113578;28;20497;-65
2021/09/11 08:07:08;;;;;;;16.13;14.40;;;;;;;;;;5113763;28;20521;-63
2021/09/11 08:09:37;;;;;;;17.10;15.37;;;;;;;;;;5113191;28;20851;-63
2021/09/11 08:12:04;;;;;;;15.60;14.02;;;;;;;;;;5113569;28;20443;-63
2021/09/11 08:14:31;;;;;;;16.58;14.75;;;;;;;;;;5113986;28;20244;-62
2021/09/11 08:16:59;;;;;;;15.88;14.35;;;;;;;;;;5113441;28;20210;-63
2021/09/11 08:19:26;;;;;;;15.10;13.70;;;;;;;;;;5113565;28;20213;-63
2021/09/11 08:21:53;;;;;;;15.87;14.33;;;;;;;;;;5113728;28;20487;-63
2021/09/11 08:24:20;;;;;;;14.63;13.23;;;;;;;;;;5113496;28;20456;-64
2021/09/11 08:26:49;;;;;;;15.63;14.00;;;;;;;;;;5113796;28;20506;-64
2021/09/11 08:29:16;;;;;;;14.73;13.33;;;;;;;;;;5113997;28;20230;-63
2021/09/11 08:31:43;;;;;;;16.08;13.70;;;;;;;;;;5113709;28;20439;-63
2021/09/11 08:34:11;;;;;;;14.52;13.10;;;;;;;;;;5113416;28;20733;-63
2021/09/11 08:36:39;;;;;;;13.10;11.90;;;;;;;;;;5113298;28;20202;-63
2021/09/11 08:39:07;;;;;;;12.60;11.30;;;;;;;;;;5113951;28;20468;-65
2021/09/11 08:41:35;;;;;;;14.40;13.07;;;;;;;;;;5113744;28;20944;-65
2021/09/11 08:44:03;;;;;;;15.65;13.10;;;;;;;;;;5113576;28;20502;-63
2021/09/11 08:46:31;;;;;;;14.93;13.43;;;;;;;;;;5113497;28;20617;-63
2021/09/11 08:48:59;;;;;;;12.27;11.00;;;;;;;;;;5113297;28;21052;-63
2021/09/11 08:51:26;;;;;;;13.30;12.10;;;;;;;;;;5113381;28;20452;-63
2021/09/11 08:53:53;;;;;;;13.70;12.27;;;;;;;;;;5114716;28;20500;-63
2021/09/11 08:56:20;;;;;;;12.38;11.18;;;;;;;;;;5117830;28;20200;-64
2021/09/11 08:58:48;;;;;;;13.48;12.27;;;;;;;;;;5120977;28;20642;-64
2021/09/11 09:01:16;;;;;;;12.37;11.03;;;;;;;;;;5121976;28;20203;-64
2021/09/11 09:03:44;;;;;;;12.27;11.17;;;;;;;;;;5120239;28;20445;-61
2021/09/11 09:06:19;;;;;;;15.10;13.20;;;;;;;;;;5127462;28;20445;-64
2021/09/11 09:08:47;;;;;;;11.73;10.73;;;;;;;;;;5129432;28;20499;-63
2021/09/11 09:11:16;;;;;;;12.80;11.70;;;;;;;;;;5128678;28;20540;-65
2021/09/11 09:13:50;;;;;;;11.70;10.70;;;;;;;;;;5122765;28;20490;-64
2021/09/11 09:16:19;;;;;;;12.53;11.43;;;;;;;;;;5118485;28;20545;-62
2021/09/11 09:18:46;;;;;;;12.83;11.53;;;;;;;;;;5116849;28;20462;-63
2021/09/11 09:21:18;;;;;;;12.93;11.53;;;;;;;;;;5116600;28;20452;-63
2021/09/11 09:23:47;;;;;;;11.07;10.17;;;;;;;;;;5116410;28;20451;-64
2021/09/11 09:26:14;;;;;;;12.23;11.03;;;;;;;;;;5117189;28;20476;-62
2021/09/11 09:28:42;;;;;;;11.45;10.25;;;;;;;;;;5116501;28;20484;-64
2021/09/11 09:31:11;;;;;;;13.17;11.87;;;;;;;;;;5116691;28;20276;-63
2021/09/11 09:33:39;;;;;;;12.27;11.23;;;;;;;;;;5116335;28;20539;-63
2021/09/11 09:36:07;;;;;;;11.17;10.13;;;;;;;;;;5116138;28;20210;-64
2021/09/11 09:38:34;;;;;;;11.97;10.57;;;;;;;;;;5116101;28;20467;-63
2021/09/11 09:41:11;;;;;;;11.57;10.57;;;;;;;;;;5116166;28;20791;-63
2021/09/11 09:43:42;;;;;;;11.90;10.70;;;;;;;;;;5116309;27;20560;-62
2021/09/11 09:46:10;;;;;;;13.60;12.20;;;;;;;;;;5116320;28;20426;-63
2021/09/11 09:48:38;;;;;;;13.13;11.90;;;;;;;;;;5115788;28;20988;-64
2021/09/11 09:51:07;;;;;;;13.63;12.20;;;;;;;;;;5116174;28;20517;-63
2021/09/11 09:53:35;;;;;;;13.77;12.30;;;;;;;;;;5116080;27;20660;-63
2021/09/11 09:56:03;;;;;;;13.93;12.63;;;;;;;;;;5117214;28;20441;-63
2021/09/11 09:58:31;;;;;;;13.47;12.17;;;;;;;;;;5116137;28;20959;-63
2021/09/11 10:00:58;;;;;;;13.70;12.30;;;;;;;;;;5119831;22;20600;-58
2021/09/11 10:03:25;;;;;;;15.73;12.30;;;;;;;;;;5074637;28;20458;-58
2021/09/11 10:05:54;;;;;;;16.00;12.83;;;;;;;;;;5075018;28;20619;-57
2021/09/11 10:08:23;;;;;;;14.50;13.00;;;;;;;;;;5074758;28;20561;-58
2021/09/11 10:10:51;;;;;;;12.60;11.30;;;;;;;;;;5074757;28;20482;-58
2021/09/11 10:13:19;;;;;;;12.43;11.23;;;;;;;;;;5074471;28;20934;-58
2021/09/11 10:15:51;;;;;;;16.77;11.20;;;;;;;;;;5074463;28;20512;-58
2021/09/11 10:18:36;;;;;;;12.43;11.23;;;;;;;;;;5074262;28;20450;-58
2021/09/11 10:21:29;;;;;;;13.43;10.87;;;;;;;;;;5074533;28;20221;-57
2021/09/11 10:24:15;;;;;;;12.27;11.03;;;;;;;;;;5060114;28;20459;-56
2021/09/11 10:26:48;;;;;;;12.53;11.27;;;;;;;;;;5074596;28;20454;-58
2021/09/11 10:29:39;;;;;;;11.43;10.33;;;;;;;;;;5074134;28;21036;-56
2021/09/11 10:32:06;;;;;;;13.50;10.60;;;;;;;;;;5059056;28;20511;-57
2021/09/11 10:34:44;;;;;;;11.00;9.90;;;;;;;;;;5074341;28;20454;-57
2021/09/11 10:37:11;;;;;;;11.37;10.27;;;;;;;;;;5075069;28;20542;-58
2021/09/11 10:39:39;;;;;;;10.73;9.63;;;;;;;;;;5074415;28;20490;-57
2021/09/11 10:42:08;;;;;;;11.03;9.93;;;;;;;;;;5074259;28;20527;-57
2021/09/11 10:44:40;;;;;;;12.77;11.43;;;;;;;;;;5074178;28;20449;-57
2021/09/11 10:47:07;;;;;;;13.73;11.63;;;;;;;;;;5073790;28;20237;-57
2021/09/11 10:49:35;;;;;;;12.90;11.60;;;;;;;;;;5074904;28;20875;-57
2021/09/11 10:52:04;;;;;;;11.30;10.30;;;;;;;;;;5074865;28;20439;-57
2021/09/11 10:54:32;;;;;;;12.02;10.90;;;;;;;;;;5074259;28;20443;-57
2021/09/11 10:57:13;;;;;;;10.90;9.90;;;;;;;;;;5073755;28;20205;-57
2021/09/11 10:59:44;;;;;;;10.90;9.90;;;;;;;;;;5073622;28;20476;-57
2021/09/11 11:02:12;;;;;;;10.90;9.80;;;;;;;;;;5074335;28;20420;-58
2021/09/11 11:04:40;;;;;;;10.07;9.10;;;;;;;;;;5074718;28;20543;-58
2021/09/11 11:07:08;;;;;;;10.43;9.50;;;;;;;;;;5073980;28;20473;-57
2021/09/11 11:09:37;;;;;;;10.70;9.70;;;;;;;;;;5073158;28;20557;-57
2021/09/11 11:12:04;;;;;;;9.80;8.80;;;;;;;;;;5073301;28;20457;-56
2021/09/11 11:14:33;;;;;;;9.80;8.90;;;;;;;;;;5073570;28;20441;-56
2021/09/11 11:17:01;;;;;;;10.10;9.20;;;;;;;;;;5073078;28;20449;-56
2021/09/11 11:19:29;;;;;;;12.13;9.73;;;;;;;;;;5073269;28;20455;-55
2021/09/11 11:21:59;;;;;;;9.00;8.20;;;;;;;;;;5072977;28;20455;-56
2021/09/11 11:24:27;;;;;;;8.63;7.87;;;;;;;;;;5073918;28;20224;-56
2021/09/11 11:26:54;;;;;;;9.23;8.43;;;;;;;;;;5073454;28;20455;-56
2021/09/11 11:29:21;;;;;;;9.00;7.97;;;;;;;;;;5072855;28;20698;-57
2021/09/11 11:31:50;;;;;;;9.30;8.50;;;;;;;;;;5072874;28;20935;-56
2021/09/11 11:34:18;;;;;;;8.13;7.43;;;;;;;;;;5073005;28;20443;-56
2021/09/11 11:36:49;;;;;;;9.27;8.40;;;;;;;;;;5073121;28;20446;-56
2021/09/11 11:39:20;;;;;;;8.23;7.53;;;;;;;;;;5073354;28;20440;-56
2021/09/11 11:41:54;;;;;;;8.80;8.00;;;;;;;;;;5073339;28;20922;-56
2021/09/11 11:44:22;;;;;;;9.27;8.43;;;;;;;;;;5073864;28;20427;-56
2021/09/11 11:46:52;;;;;;;8.93;8.13;;;;;;;;;;5073331;28;20452;-57
2021/09/11 11:49:20;;;;;;;9.02;8.23;;;;;;;;;;5072994;28;20808;-57
2021/09/11 11:51:52;;;;;;;9.37;8.63;;;;;;;;;;5073002;28;20212;-56
2021/09/11 11:54:19;;;;;;;9.93;9.03;;;;;;;;;;5073292;28;20838;-56
2021/09/11 11:56:47;;;;;;;9.87;8.97;;;;;;;;;;5072814;28;21043;-56
2021/09/11 11:59:21;;;;;;;9.50;8.70;;;;;;;;;;5073437;28;20446;-56
2021/09/11 12:01:50;;;;;;;9.73;8.93;;;;;;;;;;5072659;28;20898;-57
2021/09/11 12:04:20;;;;;;;8.80;8.03;;;;;;;;;;5072882;28;20447;-57
2021/09/11 12:06:48;;;;;;;9.50;8.70;;;;;;;;;;5072944;28;20501;-57
2021/09/11 12:09:16;;;;;;;10.10;9.10;;;;;;;;;;5072674;28;20998;-57
2021/09/11 12:11:44;;;;;;;10.13;9.13;;;;;;;;;;5073038;28;21014;-57
2021/09/11 12:14:11;;;;;;;9.10;8.30;;;;;;;;;;5072801;28;20485;-57
2021/09/11 12:16:39;;;;;;;9.70;8.80;;;;;;;;;;5072950;28;20459;-57
2021/09/11 12:19:11;;;;;;;9.88;9.00;;;;;;;;;;5072691;28;20439;-57
2021/09/11 12:21:39;;;;;;;9.40;8.53;;;;;;;;;;5072552;28;20668;-57
2021/09/11 12:24:06;;;;;;;9.87;8.93;;;;;;;;;;5072925;28;20455;-57
2021/09/11 12:26:36;;;;;;;10.20;9.40;;;;;;;;;;5072366;28;20450;-57
2021/09/11 12:29:07;;;;;;;9.73;8.93;;;;;;;;;;5074096;28;20480;-56
2021/09/11 12:31:39;;;;;;;9.80;8.90;;;;;;;;;;5076515;28;20291;-58
2021/09/11 12:34:08;;;;;;;9.40;8.50;;;;;;;;;;5077430;28;20434;-59
2021/09/11 12:36:37;;;;;;;9.27;8.37;;;;;;;;;;5077073;28;20450;-57
2021/09/11 12:39:07;;;;;;;8.70;8.00;;;;;;;;;;5076608;28;20444;-57
2021/09/11 12:41:34;;;;;;;7.60;7.00;;;;;;;;;;5076386;28;20947;-54
2021/09/11 12:44:02;;;;;;;8.40;7.60;;;;;;;;;;5076205;28;20447;-60
2021/09/11 12:46:31;;;;;;;8.77;8.07;;;;;;;;;;5076630;28;20517;-57
2021/09/11 12:48:58;;;;;;;9.20;8.50;;;;;;;;;;5077065;28;20488;-58
2021/09/11 12:51:26;;;;;;;9.10;8.30;;;;;;;;;;5075916;28;20458;-56
2021/09/11 12:53:54;;;;;;;8.73;8.03;;;;;;;;;;5076145;28;20823;-56
2021/09/11 12:56:24;;;;;;;10.53;9.50;;;;;;;;;;5076454;28;20453;-57
2021/09/11 12:58:52;;;;;;;9.53;8.40;;;;;;;;;;5075755;28;20501;-57
2021/09/11 13:01:20;;;;;;;9.63;8.83;;;;;;;;;;5075791;28;20568;-57
2021/09/11 13:03:47;;;;;;;10.37;7.87;;;;;;;;;;5075821;28;20453;-57
2021/09/11 13:06:15;;;;;;;8.97;8.17;;;;;;;;;;5076016;28;20489;-56
2021/09/11 13:08:43;;;;;;;8.07;7.37;;;;;;;;;;5077089;28;20459;-56
2021/09/11 13:11:12;;;;;;;8.20;7.57;;;;;;;;;;5075429;28;20855;-57
2021/09/11 13:13:39;;;;;;;8.10;7.00;;;;;;;;;;5075405;28;20444;-56
2021/09/11 13:16:07;;;;;;;6.80;6.30;;;;;;;;;;5075733;28;20501;-55
2021/09/11 13:18:35;;;;;;;6.93;6.30;;;;;;;;;;5075746;28;20232;-57
2021/09/11 13:21:08;;;;;;;6.20;5.70;;;;;;;;;;5076126;28;20457;-56
2021/09/11 13:23:36;;;;;;;6.60;6.00;;;;;;;;;;5075847;28;20428;-58
2021/09/11 13:26:03;;;;;;;5.90;5.30;;;;;;;;;;5075676;28;20210;-57
2021/09/11 13:28:32;;;;;;;6.00;5.50;;;;;;;;;;5075513;28;20503;-56
2021/09/11 13:30:59;;;;;;;6.00;5.50;;;;;;;;;;5075322;28;20540;-56
2021/09/11 13:33:26;;;;;;;5.60;5.10;;;;;;;;;;5075540;28;20203;-58
2021/09/11 13:35:53;;;;;;;4.60;4.20;;;;;;;;;;5075527;28;20448;-57
2021/09/11 13:38:21;;;;;;;5.15;3.85;;;;;;;;;;5075114;28;20504;-57
2021/09/11 13:40:48;;;;;;;4.17;3.77;;;;;;;;;;5074546;28;20303;-58
2021/09/11 13:43:16;;;;;;;4.80;4.40;;;;;;;;;;5075252;28;20493;-57
2021/09/11 13:45:44;;;;;;;6.50;4.87;;;;;;;;;;5077896;28;20259;-58
2021/09/11 13:48:12;;;;;;;4.60;4.20;;;;;;;;;;5075518;28;20969;-56
2021/09/11 13:50:39;;;;;;;4.50;4.03;;;;;;;;;;5075082;28;20218;-56
2021/09/11 13:53:06;;;;;;;3.70;3.40;;;;;;;;;;5075269;28;20447;-56
2021/09/11 13:55:34;;;;;;;4.13;3.73;;;;;;;;;;5074718;28;20203;-55
2021/09/11 13:58:01;;;;;;;4.00;3.60;;;;;;;;;;5075149;28;20447;-56
2021/09/11 14:00:28;;;;;;;3.93;3.30;;;;;;;;;;5074502;28;20587;-56
2021/09/11 14:02:57;;;;;;;5.33;3.27;;;;;;;;;;5074569;28;20915;-56
2021/09/11 14:05:25;;;;;;;3.63;3.33;;;;;;;;;;5074619;28;20492;-56
2021/09/11 14:07:52;;;;;;;3.20;3.00;;;;;;;;;;5074702;28;20452;-57
2021/09/11 14:10:19;;;;;;;5.47;3.53;;;;;;;;;;5075235;28;20480;-56
2021/09/11 14:12:47;;;;;;;4.70;3.90;;;;;;;;;;5074510;28;20455;-56
2021/09/11 14:15:16;;;;;;;4.27;3.87;;;;;;;;;;5074775;28;20577;-56
2021/09/11 14:17:43;;;;;;;4.63;4.23;;;;;;;;;;5074338;28;20492;-57
2021/09/11 14:20:13;;;;;;;4.10;3.80;;;;;;;;;;5074401;28;20467;-56
2021/09/11 14:22:41;;;;;;;5.47;4.97;;;;;;;;;;5074211;28;20451;-57
2021/09/11 14:25:08;;;;;;;6.00;5.40;;;;;;;;;;5074475;28;20451;-56
2021/09/11 14:27:36;;;;;;;5.60;5.20;;;;;;;;;;5074070;28;20801;-57
2021/09/11 14:30:03;;;;;;;5.67;5.27;;;;;;;;;;5074255;28;20977;-57
2021/09/11 14:32:30;;;;;;;7.13;5.77;;;;;;;;;;5074264;28;20524;-55